Betws, United Kingdom
Current Conditions -  °F | °C
As of 12:50 PM on Wednesday 22 Oct 2014 (Local Time) from EGDX Reporting Station
Broken Clouds Broken Clouds  
Wind Chill: 55°   Ceiling: 3400
Heat Index: 55°   Visibility: 6mi
Dew Point: 45°   Wind: 16mph
Humidity: 67%   Direction: 280°W
Pressure: 30.3"   Gusts: NA
Location:  51.57°N, 3.59°W
Report Text: EGDX 221150Z 28014KT 9999 SCT026 BKN034 13/07 Q1026 BLU
Loading
Personal Weather Stations






























Interactive Weather Map
Tropical Storm Tracking
New forecast layout! Learn more

10-Day Weather Forecast

Advertisements
Track Severe Weather on mobile